Time;durP1;ratioP1;P1;durP2;ratioP2;P2;SDS_P1;SDS_P2;PMS_P1;PMS_P2;Temp;Humidity;BMP_temperature;BMP_pressure;BME280_temperature;BME280_humidity;BME280_pressure;Samples;Min_cycle;Max_cycle;Signal;HPM_P1;HPM_P2
2022/03/25 00:00:33;;;;;;;26.63;24.40;;;;;;;5.05;62.26;99633.88;4973103;28;20284;-59
2022/03/25 00:02:58;;;;;;;18.57;16.87;;;;;;;4.97;63.24;99629.47;4972027;28;20045;-59
2022/03/25 00:05:24;;;;;;;18.43;16.80;;;;;;;4.90;63.87;99635.28;4977473;28;20058;-59
2022/03/25 00:07:49;;;;;;;18.27;16.57;;;;;;;4.87;64.60;99642.84;4976492;28;20034;-59
2022/03/25 00:10:15;;;;;;;24.50;22.57;;;;;;;4.77;64.43;99616.41;4972098;28;20539;-59
2022/03/25 00:12:41;;;;;;;20.67;18.80;;;;;;;4.80;65.34;99636.78;4972940;28;20046;-59
2022/03/25 00:15:07;;;;;;;20.80;18.97;;;;;;;4.80;65.13;99638.47;4975260;28;20045;-59
2022/03/25 00:17:33;;;;;;;23.37;21.33;;;;;;;4.63;66.70;99622.00;4974626;28;20267;-59
2022/03/25 00:19:58;;;;;;;25.27;23.20;;;;;;;4.68;66.63;99620.44;4971390;28;20035;-59
2022/03/25 00:22:24;;;;;;;20.73;18.93;;;;;;;4.71;65.35;99623.88;4973158;28;20140;-60
2022/03/25 00:24:49;;;;;;;18.77;17.03;;;;;;;4.67;65.30;99623.81;4977160;28;20259;-59
2022/03/25 00:27:16;;;;;;;24.37;22.33;;;;;;;4.66;66.09;99634.81;4973684;28;20053;-59
2022/03/25 00:29:42;;;;;;;23.67;21.63;;;;;;;4.49;67.70;99620.09;4971310;28;20460;-60
2022/03/25 00:32:07;;;;;;;19.80;18.03;;;;;;;4.56;69.25;99637.16;4972456;28;20349;-58
2022/03/25 00:34:33;;;;;;;18.47;16.77;;;;;;;4.60;69.40;99628.75;4976880;28;20065;-59
2022/03/25 00:36:58;;;;;;;22.43;20.50;;;;;;;4.78;67.72;99622.34;4975108;28;20112;-60
2022/03/25 00:39:24;;;;;;;26.50;24.23;;;;;;;4.66;66.86;99615.34;4970647;28;20042;-58
2022/03/25 00:41:50;;;;;;;24.17;22.03;;;;;;;4.64;67.21;99603.41;4973362;28;20057;-58
2022/03/25 00:44:18;;;;;;;23.23;21.30;;;;;;;4.71;67.42;99630.69;4976942;28;20101;-59
2022/03/25 00:46:44;;;;;;;24.53;22.47;;;;;;;4.71;67.37;99628.13;4972497;28;20602;-59
2022/03/25 00:49:11;;;;;;;29.17;26.73;;;;;;;4.71;67.79;99625.59;4971460;28;20282;-59
2022/03/25 00:51:36;;;;;;;21.10;19.20;;;;;;;4.69;68.03;99617.94;4977551;28;20644;-58
2022/03/25 00:54:03;;;;;;;21.33;19.50;;;;;;;4.72;66.84;99589.19;4975701;28;20369;-58
2022/03/25 00:56:29;;;;;;;27.10;24.77;;;;;;;4.73;66.79;99596.84;4971939;28;20030;-58
2022/03/25 00:58:54;;;;;;;25.60;23.37;;;;;;;4.75;66.68;99609.59;4969539;28;20312;-58
2022/03/25 01:01:19;;;;;;;19.53;17.80;;;;;;;4.59;66.91;99588.94;4975256;28;20736;-59
2022/03/25 01:03:45;;;;;;;20.07;18.27;;;;;;;4.75;66.83;99609.59;4973965;28;20027;-59
2022/03/25 01:06:10;;;;;;;25.00;22.90;;;;;;;4.62;67.44;99610.16;4971279;28;20649;-59
2022/03/25 01:08:36;;;;;;;26.83;24.37;;;;;;;4.54;68.35;99594.78;4969287;28;20516;-60
2022/03/25 01:11:04;;;;;;;20.97;19.13;;;;;;;4.68;67.71;99612.81;4975336;28;20121;-59
2022/03/25 01:13:33;;;;;;;19.43;17.53;;;;;;;4.51;68.26;99582.88;4976335;28;20038;-59
2022/03/25 01:16:07;;;;;;;30.40;27.93;;;;;;;4.43;68.80;99591.16;4967583;28;20697;-60
2022/03/25 01:18:32;;;;;;;21.67;19.77;;;;;;;4.55;67.71;99604.09;4972419;28;20312;-59
2022/03/25 01:20:58;;;;;;;17.83;16.20;;;;;;;4.43;69.48;99604.69;4975463;28;20880;-60
2022/03/25 01:23:25;;;;;;;24.80;22.67;;;;;;;4.39;69.99;99608.00;4974113;28;20503;-59
2022/03/25 01:25:50;;;;;;;22.67;20.83;;;;;;;4.35;70.01;99611.31;4969832;28;20266;-59
2022/03/25 01:28:16;;;;;;;20.10;18.17;;;;;;;4.23;70.96;99608.50;4971789;28;20261;-59
2022/03/25 01:30:42;;;;;;;18.63;16.90;;;;;;;4.07;70.46;99591.22;4974166;28;20089;-60
2022/03/25 01:33:09;;;;;;;24.07;21.80;;;;;;;4.07;71.41;99594.59;4973686;28;20034;-59
2022/03/25 01:35:34;;;;;;;22.53;20.60;;;;;;;4.09;71.71;99610.72;4970657;28;20293;-59
2022/03/25 01:38:01;;;;;;;18.63;16.83;;;;;;;3.81;72.61;99577.97;4972464;28;20333;-59
2022/03/25 01:40:27;;;;;;;18.53;16.87;;;;;;;4.09;71.65;99612.41;4973781;28;20057;-60
2022/03/25 01:42:52;;;;;;;23.30;21.20;;;;;;;4.00;70.90;99599.50;4972637;28;20266;-59
2022/03/25 01:45:30;;;;;;;24.73;22.63;;;;;;;3.90;71.25;99608.63;4971000;28;20323;-59
2022/03/25 01:47:55;;;;;;;148.07;140.73;;;;;;;3.88;71.11;99604.31;4972298;28;20038;-60
2022/03/25 01:50:21;;;;;;;18.07;16.43;;;;;;;3.81;71.88;99602.47;4974828;28;20317;-59
2022/03/25 01:52:49;;;;;;;26.33;24.13;;;;;;;3.67;72.51;99592.84;4969962;28;20436;-60
2022/03/25 01:55:18;;;;;;;25.97;23.80;;;;;;;3.58;74.16;99594.31;4969361;28;20406;-60
2022/03/25 01:57:44;;;;;;;21.73;19.53;;;;;;;3.54;74.04;99600.97;4974019;28;20297;-58
2022/03/25 02:00:12;;;;;;;20.60;18.77;;;;;;;3.63;73.77;99603.75;4974641;28;20597;-58
2022/03/25 02:02:39;;;;;;;19.33;17.53;;;;;;;3.59;73.24;99606.16;4973208;23;20310;-85
2022/03/25 02:05:05;;;;;;;21.20;19.37;;;;;;;3.48;73.38;99584.78;4959033;28;20285;-85
2022/03/25 02:07:30;;;;;;;30.63;28.07;;;;;;;3.64;73.96;99612.22;4976067;23;20309;-58
2022/03/25 02:09:56;;;;;;;27.20;24.80;;;;;;;3.45;73.50;99594.81;4991185;28;20281;-59
2022/03/25 02:12:22;;;;;;;27.67;25.43;;;;;;;3.54;73.55;99612.78;4989632;28;20038;-58
2022/03/25 02:14:48;;;;;;;27.40;24.90;;;;;;;3.50;74.15;99611.88;4988265;28;20026;-58
2022/03/25 02:17:15;;;;;;;25.97;23.77;;;;;;;3.50;74.16;99616.06;4989889;28;20026;-59
2022/03/25 02:19:41;;;;;;;28.50;26.27;;;;;;;3.42;75.23;99615.88;4989752;28;20036;-60
2022/03/25 02:22:08;;;;;;;23.30;21.33;;;;;;;3.33;76.58;99597.06;4989082;28;20269;-59
2022/03/25 02:24:34;;;;;;;26.83;24.63;;;;;;;3.28;77.30;99596.94;4988276;28;20778;-60
2022/03/25 02:27:00;;;;;;;24.13;21.90;;;;;;;3.59;74.86;99613.78;4989856;28;20257;-59
2022/03/25 02:29:26;;;;;;;25.20;23.00;;;;;;;3.79;71.70;99609.16;4988202;28;20038;-59
2022/03/25 02:31:52;;;;;;;24.67;22.53;;;;;;;3.66;71.84;99619.00;4988495;28;20460;-60
2022/03/25 02:34:17;;;;;;;24.80;22.67;;;;;;;3.46;72.72;99597.41;4991486;28;20043;-58
2022/03/25 02:36:45;;;;;;;20.87;18.97;;;;;;;3.43;74.31;99617.63;4994057;28;20470;-58
2022/03/25 02:39:12;;;;;;;25.05;22.90;;;;;;;3.30;74.99;99600.38;4992689;28;20041;-59
2022/03/25 02:41:38;;;;;;;25.17;22.90;;;;;;;3.31;76.10;99624.88;4992898;28;20041;-58
2022/03/25 02:44:04;;;;;;;22.33;20.37;;;;;;;3.27;77.68;99620.56;4992653;28;20592;-59
2022/03/25 02:46:30;;;;;;;25.70;23.50;;;;;;;3.33;78.39;99619.84;4992366;28;20062;-59
2022/03/25 02:48:56;;;;;;;28.57;26.23;;;;;;;3.22;79.90;99619.59;4991639;28;20786;-59
2022/03/25 02:51:21;;;;;;;25.40;23.33;;;;;;;3.11;80.42;99603.25;4994411;28;20050;-59
2022/03/25 02:53:46;;;;;;;24.10;22.03;;;;;;;3.25;80.20;99624.75;4993041;28;20026;-59
2022/03/25 02:56:12;;;;;;;24.67;22.73;;;;;;;3.11;80.27;99601.56;4989982;28;20471;-59
2022/03/25 02:58:38;;;;;;;23.43;21.53;;;;;;;3.40;79.50;99616.66;4992036;28;20095;-59
2022/03/25 03:01:06;;;;;;;18.77;17.10;;;;;;;3.31;78.33;99597.00;4995020;28;20033;-60
2022/03/25 03:03:32;;;;;;;24.53;22.33;;;;;;;3.47;78.36;99611.81;4992359;28;20233;-58
2022/03/25 03:05:57;;;;;;;26.67;24.43;;;;;;;3.56;76.67;99618.78;4990174;28;20627;-59
2022/03/25 03:08:23;;;;;;;22.50;20.50;;;;;;;3.46;75.95;99594.00;4991237;28;20488;-59
2022/03/25 03:10:49;;;;;;;20.23;18.47;;;;;;;3.68;75.84;99608.94;4994988;28;20519;-59
2022/03/25 03:13:14;;;;;;;21.50;19.63;;;;;;;3.81;74.90;99610.94;4993341;28;20042;-59
2022/03/25 03:15:40;;;;;;;25.00;23.00;;;;;;;3.69;73.18;99583.59;4991700;28;20205;-59
2022/03/25 03:18:06;;;;;;;25.53;23.37;;;;;;;3.84;73.55;99605.91;4992249;28;20030;-60
2022/03/25 03:20:31;;;;;;;20.37;18.53;;;;;;;3.78;73.90;99610.84;5009217;28;20547;-59
2022/03/25 03:22:57;;;;;;;31.37;28.93;;;;;;;3.60;73.64;99580.84;4994480;28;20880;-59
2022/03/25 03:25:23;;;;;;;26.90;24.50;;;;;;;3.70;74.14;99612.34;4992106;28;20034;-58
2022/03/25 03:27:49;;;;;;;22.67;20.73;;;;;;;3.59;73.92;99608.69;4992370;28;20057;-59
2022/03/25 03:30:14;;;;;;;19.63;17.80;;;;;;;3.45;75.53;99595.69;4994269;28;20482;-58
2022/03/25 03:32:40;;;;;;;28.17;25.87;;;;;;;3.48;76.99;99617.72;4990707;28;20025;-59
2022/03/25 03:35:06;;;;;;;26.50;24.30;;;;;;;3.34;77.60;99619.91;4989352;28;20182;-60
2022/03/25 03:37:40;;;;;;;28.48;26.25;;;;;;;3.22;79.24;99614.53;4989646;28;20129;-59
2022/03/25 03:40:06;;;;;;;24.80;22.77;;;;;;;3.34;78.18;99617.38;4992522;28;20068;-59
2022/03/25 03:42:32;;;;;;;23.57;21.63;;;;;;;3.27;78.87;99624.78;4993271;28;20273;-60
2022/03/25 03:44:57;;;;;;;26.87;24.67;;;;;;;3.08;79.98;99609.09;4990166;28;20272;-58
2022/03/25 03:47:22;;;;;;;24.67;22.63;;;;;;;3.07;81.34;99616.66;4991032;28;20095;-58
2022/03/25 03:49:48;;;;;;;28.03;25.77;;;;;;;3.11;81.26;99620.97;4992454;28;20033;-60
2022/03/25 03:52:14;;;;;;;22.70;20.73;;;;;;;3.01;80.92;99598.78;4995227;28;20041;-60
2022/03/25 03:54:40;;;;;;;30.17;27.80;;;;;;;3.00;81.03;99602.13;4993875;28;20041;-60
2022/03/25 03:57:08;;;;;;;23.87;21.97;;;;;;;2.98;80.26;99596.13;4989677;28;20034;-59
2022/03/25 03:59:34;;;;;;;20.93;19.23;;;;;;;3.01;80.82;99601.31;4992201;28;20049;-60
2022/03/25 04:01:59;;;;;;;23.03;21.20;;;;;;;2.98;80.76;99613.88;4992680;28;20273;-58
2022/03/25 04:04:25;;;;;;;22.73;20.77;;;;;;;2.95;81.43;99602.00;4992019;28;20065;-60
2022/03/25 04:06:50;;;;;;;23.17;21.23;;;;;;;3.15;80.40;99617.69;4990112;28;20042;-59
2022/03/25 04:09:16;;;;;;;22.23;20.37;;;;;;;3.22;78.48;99617.06;4989265;28;20058;-61
2022/03/25 04:11:41;;;;;;;20.87;19.13;;;;;;;3.34;77.50;99619.06;4992810;28;20053;-60
2022/03/25 04:14:07;;;;;;;23.77;21.83;;;;;;;3.27;77.21;99623.09;4993504;28;20105;-60
2022/03/25 04:16:32;;;;;;;25.07;23.00;;;;;;;3.23;77.46;99622.16;4992755;28;20223;-59
2022/03/25 04:18:58;;;;;;;25.37;23.40;;;;;;;3.09;78.16;99594.75;4989785;28;20037;-60
2022/03/25 04:21:23;;;;;;;24.20;22.23;;;;;;;3.08;78.24;99614.16;4991482;28;20025;-59
2022/03/25 04:23:49;;;;;;;21.30;19.50;;;;;;;3.12;78.77;99618.50;4992853;28;20030;-60
2022/03/25 04:26:15;;;;;;;23.27;21.37;;;;;;;2.87;78.99;99595.88;4993743;28;20033;-60
2022/03/25 04:28:40;;;;;;;23.43;21.40;;;;;;;2.81;79.40;99588.09;4990773;28;20402;-59
2022/03/25 04:31:06;;;;;;;22.63;20.67;;;;;;;2.76;80.34;99594.69;4990736;28;20293;-60
2022/03/25 04:33:34;;;;;;;22.83;21.00;;;;;;;2.87;81.17;99612.72;4991659;28;20454;-60
2022/03/25 04:36:00;;;;;;;19.33;17.67;;;;;;;2.86;80.46;99616.06;4992962;28;20120;-60
2022/03/25 04:38:25;;;;;;;25.00;22.97;;;;;;;2.84;81.14;99615.19;4991402;28;20309;-60
2022/03/25 04:40:51;;;;;;;22.80;21.00;;;;;;;2.73;81.50;99614.88;4991045;28;20684;-60
2022/03/25 04:43:16;;;;;;;22.30;20.43;;;;;;;2.57;83.18;99597.56;4992164;28;20464;-59
2022/03/25 04:45:41;;;;;;;20.97;19.20;;;;;;;2.43;83.50;99599.69;4992862;28;20042;-59
2022/03/25 04:48:09;;;;;;;28.27;26.00;;;;;;;2.45;85.77;99615.78;4991508;28;20049;-59
2022/03/25 04:50:34;;;;;;;24.20;22.30;;;;;;;2.40;86.99;99619.84;4991004;28;20137;-60
2022/03/25 04:53:00;;;;;;;21.23;19.37;;;;;;;2.37;88.03;99614.72;4990786;28;20041;-59
2022/03/25 04:55:25;;;;;;;22.40;20.57;;;;;;;2.38;88.38;99620.63;4992503;28;20033;-59
2022/03/25 04:57:51;;;;;;;21.40;19.57;;;;;;;2.42;88.00;99610.59;4992546;28;20584;-59
2022/03/25 05:00:17;;;;;;;22.80;21.00;;;;;;;2.39;88.58;99612.19;4990422;28;20056;-59
2022/03/25 05:02:43;;;;;;;24.43;22.50;;;;;;;2.39;88.74;99624.84;4990050;28;20129;-59
2022/03/25 05:05:08;;;;;;;23.67;21.73;;;;;;;2.41;88.01;99613.13;4992506;28;20781;-59
2022/03/25 05:07:34;;;;;;;22.27;20.53;;;;;;;2.34;87.80;99604.47;4992095;28;20051;-60
2022/03/25 05:10:01;;;;;;;24.70;22.73;;;;;;;2.52;87.15;99624.41;4990807;28;20030;-60
2022/03/25 05:12:27;;;;;;;24.23;22.27;;;;;;;2.55;86.85;99627.00;4989533;28;20312;-59
2022/03/25 05:14:53;;;;;;;19.65;18.02;;;;;;;2.62;86.13;99624.72;4993553;28;20064;-59
2022/03/25 05:17:19;;;;;;;22.45;20.48;;;;;;;2.63;86.08;99623.88;4992778;28;20088;-59
2022/03/25 05:19:45;;;;;;;25.33;23.33;;;;;;;2.70;85.43;99624.94;4990988;28;20121;-59
2022/03/25 05:22:10;;;;;;;26.60;24.40;;;;;;;2.71;85.55;99632.56;4989184;28;20034;-59
2022/03/25 05:24:36;;;;;;;26.37;24.30;;;;;;;2.76;84.89;99630.13;4988633;28;20034;-59
2022/03/25 05:27:02;;;;;;;20.77;19.00;;;;;;;2.79;84.94;99627.72;4989141;28;20030;-59
2022/03/25 05:29:28;;;;;;;25.47;23.53;;;;;;;2.84;84.01;99623.66;4990732;28;20129;-58
2022/03/25 05:31:54;;;;;;;28.40;26.30;;;;;;;2.86;83.04;99611.00;4973473;28;20054;-58
2022/03/25 05:34:19;;;;;;;23.70;21.63;;;;;;;2.95;82.49;99623.91;4986737;28;20297;-59
2022/03/25 05:36:45;;;;;;;21.60;19.83;;;;;;;3.15;81.26;99636.31;4992578;28;20043;-59
2022/03/25 05:39:10;;;;;;;21.03;19.27;;;;;;;3.23;80.65;99633.97;4992068;28;20179;-59
2022/03/25 05:41:35;;;;;;;28.37;26.03;;;;;;;3.21;79.68;99618.75;4991692;28;20036;-59
2022/03/25 05:44:01;;;;;;;24.80;22.70;;;;;;;3.40;78.84;99627.66;4989581;28;20085;-58
2022/03/25 05:46:27;;;;;;;23.23;21.30;;;;;;;3.52;78.30;99638.09;4993313;28;20042;-58
2022/03/25 05:48:52;;;;;;;25.33;23.37;;;;;;;3.65;76.86;99640.13;4991747;28;20042;-59
2022/03/25 05:51:18;;;;;;;26.37;24.17;;;;;;;3.79;75.43;99643.00;4989282;28;20030;-61
2022/03/25 05:53:44;;;;;;;20.97;19.23;;;;;;;3.90;75.37;99641.59;4991273;28;20451;-59
2022/03/25 05:56:11;;;;;;;26.33;24.13;;;;;;;3.93;75.65;99628.09;4991043;28;20038;-59
2022/03/25 05:58:37;;;;;;;26.37;24.23;;;;;;;4.02;75.20;99638.47;4990051;28;20108;-58
2022/03/25 06:01:05;;;;;;;20.13;18.23;;;;;;;4.17;74.08;99635.41;4991553;28;20273;-58
2022/03/25 06:03:32;;;;;;;20.60;18.67;;;;;;;4.31;72.41;99634.91;4990971;28;20304;-58
2022/03/25 06:05:58;;;;;;;24.17;22.07;;;;;;;4.45;70.49;99635.22;4989142;28;21007;-58
2022/03/25 06:08:24;;;;;;;26.10;23.97;;;;;;;4.71;69.99;99649.28;4987189;28;20300;-59
2022/03/25 06:10:50;;;;;;;23.80;21.73;;;;;;;4.77;68.53;99636.72;4989792;28;20269;-62
2022/03/25 06:13:16;;;;;;;20.93;19.10;;;;;;;5.03;67.40;99655.88;4990524;28;20483;-60
2022/03/25 06:15:41;;;;;;;28.27;25.87;;;;;;;5.14;66.96;99656.06;4988639;28;20651;-59
2022/03/25 06:18:07;;;;;;;27.60;25.27;;;;;;;5.36;65.32;99653.13;4988121;28;20311;-59
2022/03/25 06:20:33;;;;;;;24.00;21.93;;;;;;;5.50;64.19;99651.69;4989418;28;20031;-60
2022/03/25 06:22:58;;;;;;;28.80;26.47;;;;;;;5.67;63.39;99651.97;4991320;28;20802;-59
2022/03/25 06:25:24;;;;;;;26.57;24.30;;;;;;;5.81;62.06;99649.66;4987292;28;20026;-58
2022/03/25 06:27:55;;;;;;;22.83;20.80;;;;;;;5.81;60.99;99619.94;4987649;28;20056;-59
2022/03/25 06:30:24;;;;;;;22.27;20.30;;;;;;;6.26;58.91;99654.63;4989539;28;20290;-60
2022/03/25 06:32:50;;;;;;;26.80;24.57;;;;;;;6.41;57.50;99644.63;4990429;28;20282;-60
2022/03/25 06:35:16;;;;;;;27.80;25.33;;;;;;;6.65;56.59;99654.31;4989022;28;20299;-60
2022/03/25 06:37:42;;;;;;;25.80;23.57;;;;;;;6.76;55.88;99642.56;4987983;28;20050;-60
2022/03/25 06:40:09;;;;;;;23.93;21.90;;;;;;;6.92;55.52;99641.91;4989546;28;20775;-62
2022/03/25 06:42:35;;;;;;;23.40;21.43;;;;;;;7.16;55.80;99669.38;4991051;28;20099;-60
2022/03/25 06:45:05;;;;;;;25.80;23.60;;;;;;;7.32;55.21;99661.06;4989624;28;20786;-60
2022/03/25 06:47:30;;;;;;;26.07;23.97;;;;;;;7.48;55.38;99665.47;4989360;28;20316;-60
2022/03/25 06:49:56;;;;;;;24.00;21.93;;;;;;;7.65;53.96;99663.06;4991062;28;20628;-60
2022/03/25 06:52:22;;;;;;;24.03;22.00;;;;;;;7.88;53.80;99669.25;4990725;28;20482;-60
2022/03/25 06:54:48;;;;;;;24.10;22.07;;;;;;;8.08;52.52;99672.81;4988577;28;20026;-60
2022/03/25 06:57:13;;;;;;;27.03;24.73;;;;;;;8.23;52.49;99670.34;4988833;28;20044;-60
2022/03/25 06:59:41;;;;;;;24.90;22.70;;;;;;;8.37;51.44;99654.31;4990141;28;20026;-60
2022/03/25 07:02:08;;;;;;;28.30;25.87;;;;;;;8.57;49.53;99651.00;4991409;28;20030;-60
2022/03/25 07:04:34;;;;;;;28.43;26.20;;;;;;;8.82;49.15;99671.63;4989606;28;20937;-60
2022/03/25 07:06:59;;;;;;;28.03;25.67;;;;;;;8.97;48.01;99675.09;4988847;28;20300;-59
2022/03/25 07:09:25;;;;;;;24.63;22.60;;;;;;;9.11;47.74;99676.00;4991818;28;20049;-60
2022/03/25 07:11:51;;;;;;;26.53;24.30;;;;;;;9.30;48.30;99676.03;4989517;28;20038;-60
2022/03/25 07:14:16;;;;;;;27.13;24.83;;;;;;;9.46;47.19;99680.38;4988472;28;20133;-61
2022/03/25 07:16:42;;;;;;;26.97;24.73;;;;;;;9.56;46.85;99674.41;4988375;28;20033;-60
2022/03/25 07:19:10;;;;;;;128.23;62.27;;;;;;;9.65;47.04;99676.97;4991506;28;20506;-61
2022/03/25 07:21:36;;;;;;;447.50;212.55;;;;;;;9.70;45.77;99677.84;4994523;28;20030;-60
2022/03/25 07:24:02;;;;;;;443.42;210.27;;;;;;;9.87;45.04;99678.72;4992196;28;20045;-61
2022/03/25 07:26:27;;;;;;;451.93;222.20;;;;;;;9.91;44.58;99659.94;4993643;28;20030;-61
2022/03/25 07:28:53;;;;;;;336.07;174.07;;;;;;;10.12;44.34;99676.16;4993798;28;20076;-61
2022/03/25 07:31:19;;;;;;;449.03;221.70;;;;;;;10.27;42.71;99678.75;4992071;28;20034;-61
2022/03/25 07:33:44;;;;;;;333.77;165.77;;;;;;;10.38;41.36;99685.56;4993515;28;20026;-61
2022/03/25 07:36:10;;;;;;;338.00;174.50;;;;;;;10.40;41.05;99667.59;4996901;28;20144;-61
2022/03/25 07:38:36;;;;;;;334.00;172.40;;;;;;;10.42;40.21;99650.50;4995306;28;20030;-62
2022/03/25 07:41:03;;;;;;;461.13;241.57;;;;;;;10.58;39.97;99688.09;4995925;28;20672;-61
2022/03/25 07:43:30;;;;;;;340.90;182.83;;;;;;;10.64;39.39;99693.22;4994809;28;20041;-61
2022/03/25 07:45:55;;;;;;;453.38;234.95;;;;;;;10.60;40.05;99671.00;4995285;28;20265;-61
2022/03/25 07:48:20;;;;;;;456.83;244.73;;;;;;;10.80;40.03;99684.59;4995100;28;20091;-61
2022/03/25 07:50:46;;;;;;;340.87;183.10;;;;;;;10.65;40.25;99671.81;4994482;28;20026;-62
2022/03/25 07:53:12;;;;;;;337.17;180.73;;;;;;;10.82;40.26;99690.56;4993302;28;20030;-62
2022/03/25 07:55:37;;;;;;;461.70;260.07;;;;;;;10.82;39.29;99695.72;4994790;28;20536;-62
2022/03/25 07:58:03;;;;;;;462.53;253.97;;;;;;;11.03;39.69;99697.38;4994287;28;20034;-61
2022/03/25 08:00:28;;;;;;;459.67;254.77;;;;;;;11.12;39.53;99688.78;4993141;28;20025;-62
2022/03/25 08:02:54;;;;;;;337.33;193.27;;;;;;;11.22;39.42;99695.56;4991980;28;20034;-62
2022/03/25 08:05:20;;;;;;;462.80;258.13;;;;;;;11.11;39.53;99697.34;4995061;28;20126;-62
2022/03/25 08:07:55;;;;;;;465.27;263.92;;;;;;;11.16;38.93;99701.56;4993524;28;20131;-62
2022/03/25 08:10:28;;;;;;;329.10;189.25;;;;;;;11.29;39.60;99699.81;4991928;28;20044;-62
2022/03/25 08:12:56;;;;;;;455.50;252.82;;;;;;;11.33;39.44;99678.41;4991634;28;20108;-62
2022/03/25 08:15:23;;;;;;;457.80;255.32;;;;;;;11.58;39.14;99694.53;4993745;28;20039;-62
2022/03/25 08:17:51;;;;;;;466.42;268.80;;;;;;;11.71;39.40;99691.03;4992287;28;20056;-62
2022/03/25 08:20:47;;;;;;;465.50;271.75;;;;;;;11.88;39.96;99692.63;4991995;28;20144;-63
2022/03/25 08:23:12;;;;;;;457.17;262.23;;;;;;;11.90;39.60;99695.19;4993482;28;20123;-62
2022/03/25 08:28:23;;;;;;;332.80;201.52;;;;;;;11.94;38.89;99691.75;4991125;28;20052;-62
2022/03/25 08:30:49;;;;;;;368.83;226.40;;;;;;;11.88;39.09;99692.63;4990762;28;20038;-62
2022/03/25 08:33:15;;;;;;;465.20;271.57;;;;;;;12.07;38.29;99695.06;4993343;28;20399;-62
2022/03/25 08:35:42;;;;;;;361.40;219.67;;;;;;;12.09;37.94;99690.78;4992895;28;20257;-61
2022/03/25 08:38:08;;;;;;;347.40;208.63;;;;;;;12.22;38.29;99692.38;4992582;28;20593;-61
2022/03/25 08:40:35;;;;;;;470.70;274.67;;;;;;;12.20;38.25;99676.09;4993841;28;20315;-61
2022/03/25 08:43:02;;;;;;;344.63;209.33;;;;;;;12.51;37.81;99690.41;4993631;28;20297;-62
2022/03/25 08:45:28;;;;;;;468.30;279.80;;;;;;;12.46;37.43;99693.88;4993483;28;20265;-61
2022/03/25 08:47:54;;;;;;;474.33;300.30;;;;;;;12.55;37.86;99674.06;4990036;28;20272;-61
2022/03/25 08:50:22;;;;;;;486.87;334.50;;;;;;;12.67;37.76;99689.38;4991447;28;20026;-61
2022/03/25 08:52:49;;;;;;;487.07;323.67;;;;;;;12.80;37.58;99690.94;4992142;28;20559;-61
2022/03/25 08:55:18;;;;;;;477.00;310.10;;;;;;;12.83;37.70;99685.75;4989909;28;20269;-62
2022/03/25 08:57:44;;;;;;;483.83;332.33;;;;;;;12.72;37.55;99692.75;5006221;28;20273;-61
2022/03/25 09:00:12;;;;;;;479.23;330.10;;;;;;;12.88;37.53;99677.97;4994147;28;20331;-62
2022/03/25 09:02:39;;;;;;;493.23;345.53;;;;;;;13.05;37.54;99677.78;4993813;28;20531;-61
2022/03/25 09:05:05;;;;;;;492.23;348.60;;;;;;;13.13;36.96;99689.72;4991607;28;20845;-61
2022/03/25 09:07:31;;;;;;;498.10;373.20;;;;;;;13.13;36.81;99692.31;4986136;28;20379;-62
2022/03/25 09:09:57;;;;;;;491.97;373.40;;;;;;;13.24;36.75;99674.97;4993323;28;20296;-61
2022/03/25 09:12:23;;;;;;;493.90;372.93;;;;;;;13.33;37.04;99675.72;4993923;28;20289;-67
2022/03/25 09:14:49;;;;;;;496.07;371.70;;;;;;;13.38;36.70;99676.53;4989420;28;20637;-61
2022/03/25 09:17:15;;;;;;;492.57;375.23;;;;;;;13.47;36.93;99659.22;4990925;28;20037;-57
2022/03/25 09:19:41;;;;;;;497.90;380.97;;;;;;;13.78;37.51;99687.13;4991313;28;20253;-61
2022/03/25 09:22:07;;;;;;;500.30;412.33;;;;;;;13.86;36.97;99685.28;4991765;28;20442;-59
2022/03/25 09:24:32;;;;;;;493.60;372.27;;;;;;;13.77;36.10;99683.69;4989424;28;20356;-62
2022/03/25 09:26:58;;;;;;;483.80;344.77;;;;;;;13.92;35.99;99692.94;4989980;28;20288;-62
2022/03/25 09:29:23;;;;;;;492.70;382.03;;;;;;;13.92;36.10;99695.50;4991054;28;20042;-62
2022/03/25 09:31:49;;;;;;;493.90;403.13;;;;;;;13.86;36.14;99693.88;4991314;28;20056;-62
2022/03/25 09:36:58;;;;;;;491.60;389.70;;;;;;;14.01;36.12;99688.47;4988153;28;20586;-62
2022/03/25 09:39:23;;;;;;;497.37;400.23;;;;;;;13.98;35.46;99672.19;4992003;28;20339;-62
2022/03/25 09:41:50;;;;;;;494.40;394.27;;;;;;;14.16;35.22;99685.66;4989747;28;20045;-62
2022/03/25 09:44:16;;;;;;;494.93;396.53;;;;;;;14.26;34.74;99685.50;4988394;28;20029;-62
2022/03/25 09:46:42;;;;;;;491.50;394.03;;;;;;;14.36;35.56;99681.91;4989229;28;20978;-62
2022/03/25 09:49:09;;;;;;;487.70;383.17;;;;;;;14.37;35.02;99681.03;4991586;28;20277;-62
2022/03/25 09:51:36;;;;;;;495.50;400.90;;;;;;;14.31;34.74;99675.94;4990293;28;20667;-62
2022/03/25 09:54:03;;;;;;;492.70;395.83;;;;;;;14.28;35.30;99676.84;4988424;28;20292;-62
2022/03/25 09:56:28;;;;;;;502.53;407.13;;;;;;;14.12;35.22;99667.69;4990715;28;20254;-62
2022/03/25 09:58:54;;;;;;;497.37;414.13;;;;;;;14.31;35.11;99675.94;4990163;28;20323;-62
2022/03/25 10:01:20;;;;;;;497.67;416.93;;;;;;;14.43;34.22;99662.84;4989866;28;20194;-62
2022/03/25 10:03:46;;;;;;;494.00;416.23;;;;;;;14.65;34.36;99666.75;4988678;28;20030;-60
2022/03/25 10:06:12;;;;;;;494.30;416.57;;;;;;;14.79;33.75;99669.06;4992517;28;20273;-61
2022/03/25 10:08:38;;;;;;;552.90;496.70;;;;;;;14.74;33.22;99655.38;4992251;28;20332;-62
2022/03/25 10:11:27;;;;;;;546.23;489.53;;;;;;;14.89;33.13;99663.72;4990029;28;20627;-61
2022/03/25 10:14:21;;;;;;;524.17;468.27;;;;;;;14.89;32.36;99662.84;4988618;28;20030;-61
2022/03/25 10:16:48;;;;;;;500.93;443.03;;;;;;;14.62;32.00;99652.19;4991596;28;20267;-62
2022/03/25 10:19:24;;;;;;;506.27;449.27;;;;;;;14.87;32.60;99654.28;4991378;28;20289;-63
2022/03/25 10:21:56;;;;;;;499.93;441.33;;;;;;;14.98;33.51;99662.66;4990266;28;20269;-61
2022/03/25 10:24:47;;;;;;;496.57;436.07;;;;;;;15.05;32.41;99659.94;4991022;28;20686;-61
2022/03/25 10:27:17;;;;;;;500.10;439.00;;;;;;;15.18;33.21;99651.91;4990884;28;20414;-61
2022/03/25 10:29:45;;;;;;;506.70;449.67;;;;;;;15.34;32.88;99664.47;4990018;28;20380;-61
2022/03/25 10:32:13;;;;;;;506.33;445.73;;;;;;;15.33;33.98;99649.00;4987088;28;20297;-61
2022/03/25 10:34:41;;;;;;;504.43;444.30;;;;;;;15.38;32.58;99660.09;4991917;28;20258;-62
2022/03/25 10:37:10;;;;;;;499.53;438.10;;;;;;;15.40;32.87;99650.59;4991940;28;20272;-62
2022/03/25 10:39:36;;;;;;;525.20;469.00;;;;;;;15.31;33.10;99650.78;4989727;28;20265;-62
2022/03/25 10:42:06;;;;;;;562.77;505.27;;;;;;;15.37;33.49;99645.47;4988778;28;20306;-61
2022/03/25 10:44:43;;;;;;;590.33;532.53;;;;;;;15.21;33.41;99649.25;4990565;28;20078;-62
2022/03/25 10:47:14;;;;;;;583.47;525.43;;;;;;;15.31;32.43;99656.78;4990923;28;20316;-62
2022/03/25 10:49:43;;;;;;;585.00;526.77;;;;;;;15.40;32.81;99660.91;4989274;28;20292;-62
2022/03/25 10:52:32;;;;;;;569.07;512.27;;;;;;;15.54;32.57;99652.00;4988720;28;20825;-61
2022/03/25 10:55:24;;;;;;;570.43;512.97;;;;;;;15.69;33.80;99652.53;4992277;28;20277;-62
2022/03/25 10:57:56;;;;;;;560.23;503.33;;;;;;;15.60;33.28;99629.47;4991292;28;20802;-62
2022/03/25 11:00:23;;;;;;;555.23;498.33;;;;;;;15.62;32.95;99635.44;4992615;28;20288;-62
2022/03/25 11:02:48;;;;;;;614.23;556.20;;;;;;;15.72;32.10;99627.44;4994578;28;20615;-61
2022/03/25 11:05:14;;;;;;;627.27;568.87;;;;;;;15.94;33.24;99638.97;4995022;28;20269;-62
2022/03/25 11:07:43;;;;;;;631.33;572.93;;;;;;;16.03;32.69;99635.31;4992214;28;20069;-62
2022/03/25 11:10:12;;;;;;;632.27;573.43;;;;;;;15.69;32.43;99637.88;4991291;28;20034;-62
2022/03/25 11:12:41;;;;;;;638.50;580.27;;;;;;;16.02;33.06;99631.03;5009977;28;20326;-62
2022/03/25 11:15:09;;;;;;;633.60;574.50;;;;;;;15.87;32.66;99637.41;4996123;28;20300;-62
2022/03/25 11:17:36;;;;;;;623.63;565.30;;;;;;;16.04;32.56;99634.41;4992093;28;20262;-62
2022/03/25 11:20:01;;;;;;;621.10;562.90;;;;;;;15.94;32.43;99631.22;4993113;28;20289;-62